KJEF

Jefferson City Memorial Airport

Jefferson City, Missouri, USA
METAR KJEF 190253Z AUTO 13005KT 10SM FEW060 FEW070 25/22 A2994 RMK AO2 SLP123 T02500217 51017
Observed Flight Rules
Sep-19 @ 02:53 UTC (26 minutes ago) Visual Flight Rules
Wind Visibility Clouds
130° at 5 knots 10 miles
  • Few at 6,000' AGL
  • Few at 7,000' AGL
Temperatures Readings
Current 25°C / 77°F
Dewpoint 22°C / 72°F
Humidity 83%
Altimeter 29.94" Hg
Pressure 1012.3 hPa
Elevation 168
METAR KJEF 190253Z AUTO 13005KT 10SM FEW060 FEW070 25/22 A2994 RMK AO2 SLP123 T02500217 51017
Observed Flight Rules
Sep-19 @ 02:53 UTC
(26 minutes ago)
VFR
Wind Visibility
130° at 5 knots 10 miles
Clouds
  • Few at 6,000' AGL
  • Few at 7,000' AGL
Temperature Dewpoint
25°C / 77°F 22°C / 72°F
Humidity Altimeter Pressure
83% 29.94" Hg 1012.3 hPa